createdAt,value
2018-04-30T00:00:47.002Z,98440.57
2018-04-30T00:03:14.363Z,98441.70
2018-04-30T00:05:41.745Z,98439.53
2018-04-30T00:08:09.122Z,98458.26
2018-04-30T00:10:36.495Z,98450.00
2018-04-30T00:13:03.868Z,98464.83
2018-04-30T00:15:31.246Z,98476.30
2018-04-30T00:17:58.656Z,98481.80
2018-04-30T00:20:26.034Z,98470.92
2018-04-30T00:22:53.407Z,98476.22
2018-04-30T00:25:20.782Z,98488.58
2018-04-30T00:27:48.143Z,98469.22
2018-04-30T00:30:15.547Z,98482.56
2018-04-30T00:32:42.929Z,98470.42
2018-04-30T00:35:10.304Z,98490.33
2018-04-30T00:37:37.692Z,98512.82
2018-04-30T00:40:05.074Z,98506.17
2018-04-30T00:42:32.456Z,98485.56
2018-04-30T00:44:59.847Z,98482.36
2018-04-30T00:47:27.218Z,98494.75
2018-04-30T00:49:54.590Z,98524.67
2018-04-30T00:52:21.978Z,98508.45
2018-04-30T00:55:00.090Z,98514.60
2018-04-30T00:57:27.465Z,98510.59
2018-04-30T00:59:54.835Z,98507.27
2018-04-30T01:02:22.216Z,98517.47
2018-04-30T01:04:49.591Z,98516.89
2018-04-30T01:07:17.038Z,98529.91
2018-04-30T01:09:44.425Z,98542.12
2018-04-30T01:12:11.995Z,98533.58
2018-04-30T01:14:39.368Z,98526.77
2018-04-30T01:17:06.743Z,98528.77
2018-04-30T01:19:34.119Z,98513.97
2018-04-30T01:22:01.561Z,98534.25
2018-04-30T01:24:28.911Z,98581.84
2018-04-30T01:26:56.292Z,98528.22
2018-04-30T01:29:23.662Z,98534.69
2018-04-30T01:31:51.102Z,98535.42
2018-04-30T01:34:18.488Z,98550.66
2018-04-30T01:36:45.861Z,98543.21
2018-04-30T01:39:13.243Z,98551.33
2018-04-30T01:41:40.776Z,98558.65
2018-04-30T01:44:08.211Z,98557.83
2018-04-30T01:46:35.786Z,98572.45
2018-04-30T01:49:03.160Z,98561.67
2018-04-30T01:51:30.530Z,98554.34
2018-04-30T01:53:57.902Z,98568.67
2018-04-30T01:56:25.277Z,98560.95
2018-04-30T01:58:52.667Z,98558.75
2018-04-30T02:01:20.047Z,98556.23
2018-04-30T02:03:47.440Z,98582.74
2018-04-30T02:06:15.011Z,98573.61
2018-04-30T02:08:42.400Z,98578.94
2018-04-30T02:11:09.773Z,98593.48
2018-04-30T02:13:37.158Z,98591.70
2018-04-30T02:16:04.532Z,98590.92
2018-04-30T02:18:31.961Z,98602.96
2018-04-30T02:20:59.327Z,98650.33
2018-04-30T02:23:26.721Z,98610.92
2018-04-30T02:25:54.093Z,98695.78
2018-04-30T02:28:21.659Z,98641.34
2018-04-30T02:30:49.034Z,98627.20
2018-04-30T02:33:16.414Z,98637.11
2018-04-30T02:35:43.807Z,98644.39
2018-04-30T02:38:11.205Z,98641.40
2018-04-30T02:40:38.670Z,98647.40
2018-04-30T02:43:06.084Z,98652.17
2018-04-30T02:45:33.443Z,98656.38
2018-04-30T02:48:00.940Z,98650.34
2018-04-30T02:50:28.299Z,98657.30
2018-04-30T02:52:55.675Z,98661.16
2018-04-30T02:55:23.063Z,98645.73
2018-04-30T02:57:50.471Z,98651.73
2018-04-30T03:00:17.850Z,98661.20
2018-04-30T03:02:45.231Z,98668.03
2018-04-30T03:05:12.599Z,98668.46
2018-04-30T03:07:39.982Z,98662.91
2018-04-30T03:10:07.374Z,98656.05
2018-04-30T03:12:34.735Z,98653.92
2018-04-30T03:15:02.121Z,98660.34
2018-04-30T03:17:29.491Z,98659.05
2018-04-30T03:19:56.871Z,98644.91
2018-04-30T03:22:24.247Z,98656.92
2018-04-30T03:24:51.621Z,98681.30
2018-04-30T03:27:19.000Z,98656.05
2018-04-30T03:29:46.371Z,98673.19
2018-04-30T03:32:13.739Z,98651.36
2018-04-30T03:34:41.126Z,98668.01
2018-04-30T03:37:08.568Z,98669.74
2018-04-30T03:39:35.955Z,98673.59
2018-04-30T03:42:03.338Z,98662.06
2018-04-30T03:44:30.739Z,98663.33
2018-04-30T03:46:58.115Z,98655.22
2018-04-30T03:49:25.533Z,98664.21
2018-04-30T03:51:52.919Z,98669.34
2018-04-30T03:54:20.443Z,98677.02
2018-04-30T03:56:47.827Z,98685.97
2018-04-30T03:59:15.191Z,98682.56
2018-04-30T04:01:54.207Z,98674.45
2018-04-30T04:04:33.213Z,98681.31
2018-04-30T04:07:00.582Z,98694.99
2018-04-30T04:09:27.957Z,98697.10
2018-04-30T04:11:55.336Z,98684.22
2018-04-30T04:14:22.714Z,98684.16
2018-04-30T04:16:50.082Z,98694.94
2018-04-30T04:19:17.466Z,98692.70
2018-04-30T04:21:44.831Z,98707.68
2018-04-30T04:24:12.207Z,98709.86
2018-04-30T04:26:39.590Z,98734.49
2018-04-30T04:29:07.003Z,98756.23
2018-04-30T04:31:34.354Z,98777.30
2018-04-30T04:34:01.738Z,98795.20
2018-04-30T04:36:29.117Z,98786.27
2018-04-30T04:38:56.487Z,98787.26
2018-04-30T04:41:23.854Z,98782.78
2018-04-30T04:43:51.229Z,98789.24
2018-04-30T04:46:18.617Z,98790.92
2018-04-30T04:48:45.986Z,98781.03
2018-04-30T04:51:13.370Z,98802.41
2018-04-30T04:53:40.755Z,98821.09
2018-04-30T04:56:08.141Z,98808.80
2018-04-30T04:58:35.526Z,98793.78
2018-04-30T05:01:02.902Z,98806.17
2018-04-30T05:03:30.273Z,98816.75
2018-04-30T05:05:57.663Z,98829.84
2018-04-30T05:08:25.060Z,98848.96
2018-04-30T05:10:52.484Z,98840.84
2018-04-30T05:13:19.874Z,98829.03
2018-04-30T05:15:47.269Z,98833.67
2018-04-30T05:18:14.649Z,98837.43
2018-04-30T05:20:42.045Z,98843.20
2018-04-30T05:23:09.427Z,98859.66
2018-04-30T05:25:37.006Z,98870.27
2018-04-30T05:28:04.388Z,98867.32
2018-04-30T05:30:31.759Z,98869.12
2018-04-30T05:32:59.124Z,98862.61
2018-04-30T05:35:26.563Z,98855.00
2018-04-30T05:37:53.918Z,98847.28
2018-04-30T05:40:21.333Z,98838.23
2018-04-30T05:42:48.752Z,98829.28
2018-04-30T05:45:16.124Z,98832.19
2018-04-30T05:47:46.724Z,98845.49
2018-04-30T05:50:16.761Z,98855.32
2018-04-30T05:52:46.114Z,98854.88
2018-04-30T05:55:13.650Z,98857.42
2018-04-30T05:57:41.034Z,98852.50
2018-04-30T06:00:08.411Z,98851.05
2018-04-30T06:02:35.788Z,98884.97
2018-04-30T06:05:03.179Z,98869.19
2018-04-30T06:07:30.551Z,98860.78
2018-04-30T06:09:57.943Z,98861.12
2018-04-30T06:12:25.340Z,98874.85
2018-04-30T06:14:52.743Z,98860.91
2018-04-30T06:17:20.146Z,98883.84
2018-04-30T06:19:47.532Z,98889.14
2018-04-30T06:22:14.913Z,98891.95
2018-04-30T06:24:42.342Z,98898.42
2018-04-30T06:27:09.850Z,98889.15
2018-04-30T06:29:37.708Z,98903.28
2018-04-30T06:32:05.107Z,98905.38
2018-04-30T06:34:32.573Z,98912.77
2018-04-30T06:36:59.948Z,98911.34
2018-04-30T06:39:27.352Z,98915.44
2018-04-30T06:41:54.743Z,98924.69
2018-04-30T06:44:22.120Z,98910.87
2018-04-30T06:46:49.529Z,98910.45
2018-04-30T06:49:16.912Z,98917.13
2018-04-30T06:51:44.347Z,98914.01
2018-04-30T06:54:11.726Z,98902.66
2018-04-30T06:56:39.116Z,98894.89
2018-04-30T06:59:06.506Z,98904.23
2018-04-30T07:01:33.888Z,98906.02
2018-04-30T07:04:01.255Z,98892.53
2018-04-30T07:06:28.715Z,98887.03
2018-04-30T07:08:56.087Z,98895.40
2018-04-30T07:11:23.492Z,98908.30
2018-04-30T07:13:50.861Z,98910.77
2018-04-30T07:16:18.237Z,98917.67
2018-04-30T07:18:45.721Z,98925.97
2018-04-30T07:21:13.124Z,98930.67
2018-04-30T07:23:40.516Z,98940.16
2018-04-30T07:26:07.898Z,98952.09
2018-04-30T07:28:35.283Z,98955.27
2018-04-30T07:31:02.679Z,98965.50
2018-04-30T07:33:30.062Z,98970.52
2018-04-30T07:35:57.455Z,98963.70
2018-04-30T07:38:24.879Z,98956.86
2018-04-30T07:40:52.270Z,98954.23
2018-04-30T07:43:20.959Z,98951.56
2018-04-30T07:45:48.364Z,98951.34
2018-04-30T07:48:16.009Z,98953.74
2018-04-30T07:50:43.440Z,98948.89
2018-04-30T07:53:10.930Z,98947.81
2018-04-30T07:55:38.329Z,98941.27
2018-04-30T07:58:05.720Z,98944.66
2018-04-30T08:00:33.115Z,98944.45
2018-04-30T08:03:00.598Z,98935.72
2018-04-30T08:05:27.936Z,98930.16
2018-04-30T08:07:55.311Z,98941.98
2018-04-30T08:10:22.684Z,98953.55
2018-04-30T08:12:50.061Z,98955.13
2018-04-30T08:15:17.449Z,98957.25
2018-04-30T08:17:44.822Z,98938.89
2018-04-30T08:20:12.270Z,98956.42
2018-04-30T08:22:39.663Z,98959.66
2018-04-30T08:25:07.102Z,98963.68
2018-04-30T08:27:35.121Z,98964.98
2018-04-30T08:30:02.564Z,98966.00
2018-04-30T08:32:30.977Z,98969.39
2018-04-30T08:34:58.362Z,98989.20
2018-04-30T08:37:25.740Z,98970.90
2018-04-30T08:39:53.136Z,98973.91
2018-04-30T08:42:20.517Z,98973.26
2018-04-30T08:44:47.922Z,98975.27
2018-04-30T08:47:15.338Z,98975.14
2018-04-30T08:49:42.717Z,98954.47
2018-04-30T08:52:10.137Z,98968.59
2018-04-30T08:54:37.507Z,98957.31
2018-04-30T08:57:04.891Z,98951.95
2018-04-30T08:59:32.467Z,98971.08
2018-04-30T09:01:59.852Z,98955.53
2018-04-30T09:04:27.232Z,98961.59
2018-04-30T09:06:54.622Z,98965.34
2018-04-30T09:09:22.684Z,98978.95
2018-04-30T09:11:50.156Z,98962.48
2018-04-30T09:14:19.062Z,98963.44
2018-04-30T09:16:46.445Z,98978.84
2018-04-30T09:19:13.823Z,98961.37
2018-04-30T09:21:41.205Z,98970.79
2018-04-30T09:24:08.593Z,98974.16
2018-04-30T09:26:35.982Z,99004.36
2018-04-30T09:29:03.353Z,98959.22
2018-04-30T09:31:30.728Z,98955.00
2018-04-30T09:33:58.123Z,98964.02
2018-04-30T09:36:25.611Z,98958.43
2018-04-30T09:38:52.996Z,98945.58
2018-04-30T09:41:20.432Z,98983.68
2018-04-30T09:43:47.818Z,98952.44
2018-04-30T09:46:15.179Z,98978.55
2018-04-30T09:48:42.960Z,98959.30
2018-04-30T09:51:10.343Z,98958.88
2018-04-30T09:53:37.736Z,98960.16
2018-04-30T09:56:05.112Z,98983.25
2018-04-30T09:58:32.517Z,98987.84
2018-04-30T10:00:59.884Z,98967.83
2018-04-30T10:03:27.264Z,98961.83
2018-04-30T10:05:54.647Z,98956.28
2018-04-30T10:08:22.026Z,98964.00
2018-04-30T10:10:49.397Z,98955.84
2018-04-30T10:13:16.795Z,98952.02
2018-04-30T10:15:44.192Z,98952.88
2018-04-30T10:18:11.874Z,98947.73
2018-04-30T10:20:39.275Z,98958.02
2018-04-30T10:23:06.753Z,98961.45
2018-04-30T10:25:34.133Z,98939.56
2018-04-30T10:28:01.526Z,98950.23
2018-04-30T10:30:28.992Z,98937.25
2018-04-30T10:32:56.401Z,98957.06
2018-04-30T10:35:23.775Z,98942.47
2018-04-30T10:37:52.227Z,98950.28
2018-04-30T10:40:19.579Z,98955.88
2018-04-30T10:42:47.151Z,98958.45
2018-04-30T10:45:14.523Z,98944.30
2018-04-30T10:47:42.785Z,98943.86
2018-04-30T10:50:10.285Z,98948.59
2018-04-30T10:52:37.926Z,98965.75
2018-04-30T10:55:05.303Z,98946.88
2018-04-30T10:57:32.704Z,98937.43
2018-04-30T11:00:00.158Z,98957.13
2018-04-30T11:02:27.486Z,98931.41
2018-04-30T11:04:54.883Z,98937.37
2018-04-30T11:07:22.258Z,98939.52
2018-04-30T11:09:49.667Z,98932.20
2018-04-30T11:12:17.877Z,98943.76
2018-04-30T11:14:45.288Z,98953.66
2018-04-30T11:17:12.824Z,98942.06
2018-04-30T11:19:40.293Z,98947.25
2018-04-30T11:22:07.702Z,98938.64
2018-04-30T11:24:35.257Z,98951.15
2018-04-30T11:27:02.623Z,98973.41
2018-04-30T11:29:30.075Z,98940.67
2018-04-30T11:31:57.473Z,98951.88
2018-04-30T11:34:24.900Z,98952.81
2018-04-30T11:36:52.352Z,98947.11
2018-04-30T11:39:19.824Z,98947.15
2018-04-30T11:41:47.221Z,98939.23
2018-04-30T11:44:14.615Z,98946.33
2018-04-30T11:46:42.139Z,98954.69
2018-04-30T11:49:09.584Z,98946.31
2018-04-30T11:51:36.989Z,98946.54
2018-04-30T11:54:04.479Z,98953.50
2018-04-30T11:56:31.866Z,98940.09
2018-04-30T11:58:59.257Z,98942.03
2018-04-30T12:01:26.671Z,98952.19
2018-04-30T12:03:54.043Z,98964.73
2018-04-30T12:06:21.417Z,98944.19
2018-04-30T12:08:48.835Z,99004.88
2018-04-30T12:11:16.360Z,98941.48
2018-04-30T12:13:43.759Z,98942.27
2018-04-30T12:16:11.179Z,98955.98
2018-04-30T12:18:38.556Z,98958.78
2018-04-30T12:21:05.966Z,98981.84
2018-04-30T12:23:33.326Z,98956.66
2018-04-30T12:26:00.729Z,98936.52
2018-04-30T12:28:28.215Z,98998.70
2018-04-30T12:30:55.598Z,98969.90
2018-04-30T12:33:23.124Z,98981.28
2018-04-30T12:35:50.497Z,98971.23
2018-04-30T12:38:17.873Z,98979.06
2018-04-30T12:40:45.259Z,98983.53
2018-04-30T12:43:12.677Z,98983.72
2018-04-30T12:45:40.160Z,98984.27
2018-04-30T12:48:07.522Z,98987.06
2018-04-30T12:50:34.960Z,98985.66
2018-04-30T12:53:02.356Z,98997.28
2018-04-30T12:55:29.743Z,98979.93
2018-04-30T12:57:57.128Z,98983.95
2018-04-30T13:00:24.547Z,98996.45
2018-04-30T13:02:51.982Z,99038.05
2018-04-30T13:05:19.369Z,98983.37
2018-04-30T13:07:46.744Z,98992.02
2018-04-30T13:10:14.136Z,99006.87
2018-04-30T13:12:41.585Z,98987.16
2018-04-30T13:15:08.959Z,98980.96
2018-04-30T13:17:36.339Z,98992.61
2018-04-30T13:20:03.719Z,98987.42
2018-04-30T13:22:31.091Z,98991.17
2018-04-30T13:24:58.537Z,99006.61
2018-04-30T13:27:25.933Z,99043.81
2018-04-30T13:29:53.304Z,98984.95
2018-04-30T13:32:20.690Z,98989.42
2018-04-30T13:34:48.079Z,98984.08
2018-04-30T13:37:15.517Z,98998.62
2018-04-30T13:39:48.662Z,99012.82
2018-04-30T13:42:20.179Z,98995.13
2018-04-30T13:44:47.715Z,99012.11
2018-04-30T13:47:15.106Z,99007.29
2018-04-30T13:49:42.511Z,99005.91
2018-04-30T13:52:09.884Z,99007.18
2018-04-30T13:54:37.326Z,99007.94
2018-04-30T13:57:04.719Z,98993.64
2018-04-30T13:59:32.140Z,98988.33
2018-04-30T14:01:59.533Z,99004.53
2018-04-30T14:04:26.896Z,99000.88
2018-04-30T14:06:57.517Z,98995.23
2018-04-30T14:09:29.840Z,98980.80
2018-04-30T14:11:58.491Z,98995.17
2018-04-30T14:14:25.863Z,99005.33
2018-04-30T14:16:53.282Z,98988.46
2018-04-30T14:19:20.713Z,99009.27
2018-04-30T14:21:48.107Z,99009.30
2018-04-30T14:24:15.500Z,99016.77
2018-04-30T14:26:42.889Z,99014.74
2018-04-30T14:29:10.278Z,99020.89
2018-04-30T14:31:37.749Z,99039.44
2018-04-30T14:34:05.062Z,99035.46
2018-04-30T14:36:32.442Z,99039.34
2018-04-30T14:38:59.832Z,99028.94
2018-04-30T14:41:27.232Z,99030.85
2018-04-30T14:43:54.627Z,99044.71
2018-04-30T14:46:22.086Z,99033.83
2018-04-30T14:48:49.460Z,99032.30
2018-04-30T14:51:16.892Z,99024.25
2018-04-30T14:53:44.234Z,99024.63
2018-04-30T14:56:11.625Z,99035.14
2018-04-30T14:58:38.999Z,99033.30
2018-04-30T15:01:06.375Z,99038.42
2018-04-30T15:03:33.756Z,99021.92
2018-04-30T15:06:01.132Z,99042.06
2018-04-30T15:08:28.601Z,99018.63
2018-04-30T15:10:55.969Z,99007.52
2018-04-30T15:13:23.377Z,99010.48
2018-04-30T15:15:50.813Z,99013.66
2018-04-30T15:18:18.226Z,99012.17
2018-04-30T15:20:45.646Z,99022.57
2018-04-30T15:23:13.126Z,99033.11
2018-04-30T15:25:40.666Z,99007.56
2018-04-30T15:28:08.048Z,99004.03
2018-04-30T15:30:35.779Z,99007.15
2018-04-30T15:33:03.180Z,99024.41
2018-04-30T15:35:30.590Z,99016.63
2018-04-30T15:37:58.004Z,99029.72
2018-04-30T15:40:25.372Z,99023.44
2018-04-30T15:42:52.755Z,99026.80
2018-04-30T15:45:20.473Z,99005.63
2018-04-30T15:47:47.900Z,99006.03
2018-04-30T15:50:15.255Z,98991.52
2018-04-30T15:52:42.645Z,99002.16
2018-04-30T15:55:10.061Z,98990.30
2018-04-30T15:57:39.248Z,98985.07
2018-04-30T16:00:06.758Z,98998.97
2018-04-30T16:02:34.289Z,99002.55
2018-04-30T16:05:03.888Z,99017.20
2018-04-30T16:07:31.448Z,99012.23
2018-04-30T16:09:58.833Z,99015.25
2018-04-30T16:12:26.221Z,99022.56
2018-04-30T16:14:53.603Z,99017.83
2018-04-30T16:17:20.981Z,99033.02
2018-04-30T16:19:48.364Z,99037.50
2018-04-30T16:22:15.754Z,99046.84
2018-04-30T16:24:43.191Z,99068.09
2018-04-30T16:27:10.563Z,99093.48
2018-04-30T16:29:37.972Z,99097.08
2018-04-30T16:32:05.384Z,99141.84
2018-04-30T16:34:32.784Z,99116.47
2018-04-30T16:37:00.183Z,99136.83
2018-04-30T16:39:27.615Z,99122.70
2018-04-30T16:41:55.132Z,99107.69
2018-04-30T16:44:22.622Z,99122.75
2018-04-30T16:46:50.000Z,99116.28
2018-04-30T16:49:17.491Z,99082.83
2018-04-30T16:51:44.875Z,99060.51
2018-04-30T16:54:12.327Z,99064.72
2018-04-30T16:56:39.720Z,99062.11
2018-04-30T16:59:07.142Z,99061.29
2018-04-30T17:01:34.553Z,99072.44
2018-04-30T17:04:01.943Z,99060.32
2018-04-30T17:06:29.339Z,99061.21
2018-04-30T17:08:56.721Z,99056.56
2018-04-30T17:11:24.088Z,99063.50
2018-04-30T17:13:51.471Z,99072.97
2018-04-30T17:16:18.928Z,99073.84
2018-04-30T17:18:46.336Z,99069.51
2018-04-30T17:21:13.734Z,99085.00
2018-04-30T17:23:41.286Z,99096.58
2018-04-30T17:26:08.970Z,99102.07
2018-04-30T17:28:36.371Z,99101.59
2018-04-30T17:31:03.757Z,99109.80
2018-04-30T17:33:31.123Z,99121.31
2018-04-30T17:35:58.530Z,99107.58
2018-04-30T17:38:25.920Z,99110.55
2018-04-30T17:40:53.331Z,99123.48
2018-04-30T17:43:20.710Z,99122.20
2018-04-30T17:45:48.103Z,99139.25
2018-04-30T17:48:15.500Z,99126.53
2018-04-30T17:50:42.883Z,99138.92
2018-04-30T17:53:10.249Z,99131.08
2018-04-30T17:55:37.650Z,99148.27
2018-04-30T17:58:05.021Z,99158.38
2018-04-30T18:00:32.392Z,99178.14
2018-04-30T18:02:59.830Z,99156.63
2018-04-30T18:05:27.208Z,99169.33
2018-04-30T18:07:54.598Z,99161.92
2018-04-30T18:10:22.012Z,99155.42
2018-04-30T18:12:49.477Z,99151.43
2018-04-30T18:15:37.655Z,99160.57
2018-04-30T18:18:05.150Z,99158.33
2018-04-30T18:20:33.354Z,99172.70
2018-04-30T18:23:00.723Z,99138.62
2018-04-30T18:25:28.133Z,99183.95
2018-04-30T18:27:55.506Z,99177.75
2018-04-30T18:30:22.918Z,99166.22
2018-04-30T18:32:50.299Z,99166.09
2018-04-30T18:35:17.691Z,99171.93
2018-04-30T18:37:45.063Z,99188.23
2018-04-30T18:40:12.443Z,99173.34
2018-04-30T18:42:39.829Z,99172.45
2018-04-30T18:45:07.204Z,99174.73
2018-04-30T18:47:34.660Z,99181.58
2018-04-30T18:50:02.016Z,99192.02
2018-04-30T18:52:29.406Z,99193.43
2018-04-30T18:54:56.786Z,99194.20
2018-04-30T18:57:24.177Z,99188.27
2018-04-30T18:59:51.553Z,99210.86
2018-04-30T19:02:18.942Z,99187.72
2018-04-30T19:04:46.323Z,99204.50
2018-04-30T19:07:13.711Z,99213.70
2018-04-30T19:09:41.259Z,99220.88
2018-04-30T19:12:08.628Z,99213.23
2018-04-30T19:14:36.003Z,99214.47
2018-04-30T19:17:03.394Z,99232.58
2018-04-30T19:19:30.808Z,99238.34
2018-04-30T19:21:58.168Z,99241.09
2018-04-30T19:24:25.560Z,99226.95
2018-04-30T19:26:52.955Z,99240.88
2018-04-30T19:29:20.472Z,99228.38
2018-04-30T19:31:47.967Z,99232.47
2018-04-30T19:34:15.353Z,99231.11
2018-04-30T19:36:42.760Z,99242.08
2018-04-30T19:39:10.141Z,99222.45
2018-04-30T19:41:37.534Z,99246.84
2018-04-30T19:44:05.874Z,99236.03
2018-04-30T19:46:33.247Z,99232.59
2018-04-30T19:49:00.686Z,99237.05
2018-04-30T19:51:28.075Z,99248.84
2018-04-30T19:53:55.540Z,99252.28
2018-04-30T19:56:22.925Z,99242.04
2018-04-30T19:58:50.347Z,99245.59
2018-04-30T20:01:17.736Z,99241.61
2018-04-30T20:03:45.258Z,99225.81
2018-04-30T20:06:12.623Z,99225.73
2018-04-30T20:08:40.023Z,99224.94
2018-04-30T20:11:07.400Z,99239.24
2018-04-30T20:13:40.689Z,99235.09
2018-04-30T20:16:08.184Z,99255.80
2018-04-30T20:18:35.570Z,99262.77
2018-04-30T20:21:02.987Z,99251.38
2018-04-30T20:23:30.436Z,99262.86
2018-04-30T20:25:57.915Z,99280.09
2018-04-30T20:28:25.321Z,99260.20
2018-04-30T20:30:53.276Z,99275.47
2018-04-30T20:33:20.656Z,99285.08
2018-04-30T20:35:48.169Z,99275.07
2018-04-30T20:38:15.656Z,99288.16
2018-04-30T20:40:43.042Z,99295.02
2018-04-30T20:43:10.432Z,99321.80
2018-04-30T20:45:37.811Z,99287.31
2018-04-30T20:48:05.188Z,99294.07
2018-04-30T20:50:32.684Z,99298.67
2018-04-30T20:52:59.976Z,99303.12
2018-04-30T20:55:27.353Z,99294.04
2018-04-30T20:57:55.121Z,99294.89
2018-04-30T21:00:22.539Z,99299.19
2018-04-30T21:02:49.917Z,99303.09
2018-04-30T21:05:17.307Z,99306.51
2018-04-30T21:07:44.723Z,99309.36
2018-04-30T21:10:12.117Z,99329.05
2018-04-30T21:12:39.517Z,99305.75
2018-04-30T21:15:06.992Z,99300.44
2018-04-30T21:17:34.575Z,99309.64
2018-04-30T21:20:01.848Z,99297.09
2018-04-30T21:22:29.393Z,99295.42
2018-04-30T21:24:56.801Z,99298.52
2018-04-30T21:27:24.259Z,99300.36
2018-04-30T21:29:51.612Z,99299.27
2018-04-30T21:32:19.159Z,99300.83
2018-04-30T21:34:51.235Z,99312.55
2018-04-30T21:37:18.714Z,99339.41
2018-04-30T21:39:46.219Z,99305.93
2018-04-30T21:42:14.263Z,99301.28
2018-04-30T21:44:41.639Z,99310.47
2018-04-30T21:47:09.032Z,99325.92
2018-04-30T21:49:36.421Z,99331.23
2018-04-30T21:52:03.833Z,99318.23
2018-04-30T21:54:31.273Z,99321.46
2018-04-30T21:56:58.644Z,99320.58
2018-04-30T21:59:26.076Z,99333.47
2018-04-30T22:01:53.468Z,99329.25
2018-04-30T22:04:20.862Z,99330.95
2018-04-30T22:06:48.252Z,99336.50
2018-04-30T22:09:15.639Z,99335.88
2018-04-30T22:11:43.051Z,99347.38
2018-04-30T22:14:10.443Z,99354.17
2018-04-30T22:16:37.839Z,99354.73
2018-04-30T22:19:05.202Z,99353.61
2018-04-30T22:21:32.599Z,99354.16
2018-04-30T22:23:59.990Z,99341.78
2018-04-30T22:26:27.372Z,99360.73
2018-04-30T22:28:54.770Z,99363.93
2018-04-30T22:31:22.162Z,99356.86
2018-04-30T22:33:49.598Z,99374.11
2018-04-30T22:36:16.998Z,99372.09
2018-04-30T22:38:44.399Z,99373.05
2018-04-30T22:41:11.793Z,99374.66
2018-04-30T22:43:39.179Z,99377.89
2018-04-30T22:46:06.552Z,99384.88
2018-04-30T22:48:33.940Z,99384.88
2018-04-30T22:51:01.312Z,99388.05
2018-04-30T22:53:28.775Z,99392.83
2018-04-30T22:55:56.318Z,99402.33
2018-04-30T22:58:23.699Z,99396.66
2018-04-30T23:00:51.179Z,99389.89
2018-04-30T23:03:18.571Z,99395.18
2018-04-30T23:05:45.959Z,99395.89
2018-04-30T23:08:13.326Z,99394.53
2018-04-30T23:10:40.735Z,99405.17
2018-04-30T23:13:08.107Z,99402.59
2018-04-30T23:15:35.486Z,99403.94
2018-04-30T23:18:02.855Z,99416.95
2018-04-30T23:20:30.306Z,99425.52
2018-04-30T23:22:57.720Z,99424.41
2018-04-30T23:25:25.076Z,99423.53
2018-04-30T23:27:52.469Z,99431.32
2018-04-30T23:30:19.859Z,99442.69
2018-04-30T23:32:47.266Z,99415.76
2018-04-30T23:35:14.714Z,99434.09
2018-04-30T23:37:42.023Z,99441.31
2018-04-30T23:40:09.412Z,99449.70
2018-04-30T23:42:36.800Z,99458.00
2018-04-30T23:45:04.211Z,99452.52
2018-04-30T23:47:31.716Z,99452.47
2018-04-30T23:49:59.104Z,99465.53
2018-04-30T23:52:26.521Z,99477.39
2018-04-30T23:54:53.891Z,99471.02
2018-04-30T23:57:21.286Z,99483.58
2018-04-30T23:59:48.673Z,99479.02
